Weather reports worldwide

Advertisment
Canizares, Spain (8230): temperature & dewpoint: 22.05.2020 23:00:00 - 28.05.2020 23:00:00 (CEST)Canizares, Spain (8230): gusts: 22.05.2020 23:00:00 - 28.05.2020 23:00:00 (CEST)Canizares, Spain (8230): precipitation: 22.05.2020 23:00:00 - 28.05.2020 23:00:00 (CEST)
Date & Time tt [°C] td [°C] fx [km/h] fx [kn] rr [mm]
28.05.2020 23:00:00 - - - - -
28.05.2020 22:00:00 17,9 16,6 2 1 0,0
28.05.2020 21:00:00 21,6 14,5 5 3 0,0
28.05.2020 20:00:00 24,9 13,5 10 6 -
28.05.2020 19:00:00 27,1 14,1 7 4 0,0
28.05.2020 18:00:00 28,9 15,1 10 5 0,0
28.05.2020 17:00:00 27,8 14,0 14 7 0,0
28.05.2020 16:00:00 28,0 14,2 8 4 0,0
28.05.2020 15:00:00 25,4 12,2 8 4 0,0
28.05.2020 14:00:00 25,3 12,2 0 0 -
28.05.2020 13:00:00 24,3 11,9 0 0 0,0
28.05.2020 12:00:00 24,4 12,3 0 0 0,0
28.05.2020 11:00:00 23,3 13,8 0 0 0,0
28.05.2020 10:00:00 16,4 14,9 0 0 0,0
28.05.2020 09:00:00 10,1 9,9 0 0 0,0
28.05.2020 08:00:00 7,6 7,4 0 0 -
28.05.2020 07:00:00 7,5 7,4 0 0 0,0
28.05.2020 06:00:00 8,3 8,1 0 0 0,0
28.05.2020 05:00:00 9,2 9,0 0 0 0,0
28.05.2020 04:00:00 10,3 10,2 0 0 0,0
28.05.2020 03:00:00 11,4 11,2 0 0 0,0
28.05.2020 02:00:00 12,3 12,1 0 0 -
28.05.2020 01:00:00 13,3 13,2 0 0 0,0
28.05.2020 00:00:00 14,2 14,0 0 0 0,0
27.05.2020 23:00:00 15,3 15,2 0 0 0,0
27.05.2020 22:00:00 17,2 17,1 0 0 0,0
27.05.2020 21:00:00 19,7 18,2 0 0 0,0
27.05.2020 20:00:00 21,9 17,7 0 0 -
27.05.2020 19:00:00 24,7 15,9 0 0 0,0
27.05.2020 18:00:00 25,7 17,1 6 3 0,0
27.05.2020 17:00:00 27,4 15,7 8 4 0,0
27.05.2020 16:00:00 27,3 16,6 8 4 0,0
27.05.2020 15:00:00 26,2 16,1 9 5 0,0
27.05.2020 14:00:00 26,1 15,8 9 5 -
27.05.2020 13:00:00 25,1 15,7 9 5 0,0
27.05.2020 12:00:00 23,8 15,3 6 3 0,0
27.05.2020 11:00:00 20,9 19,0 0 0 0,0
27.05.2020 10:00:00 15,4 15,3 0 0 0,0
27.05.2020 09:00:00 12,0 11,9 0 0 0,0
27.05.2020 08:00:00 10,3 10,2 0 0 -
27.05.2020 07:00:00 10,5 10,3 0 0 0,1
27.05.2020 06:00:00 10,9 10,8 0 0 0,0
27.05.2020 05:00:00 11,6 11,4 0 0 0,0
27.05.2020 04:00:00 12,0 11,9 0 0 0,0
27.05.2020 03:00:00 12,7 12,5 0 0 0,0
27.05.2020 02:00:00 13,1 13,0 0 0 -
27.05.2020 01:00:00 13,6 13,5 0 0 0,0
27.05.2020 00:00:00 14,4 14,2 0 0 0,0
26.05.2020 23:00:00 15,0 14,8 0 0 0,1
26.05.2020 22:00:00 16,2 16,0 4 2 0,1
26.05.2020 21:00:00 17,1 17,0 4 2 0,8
26.05.2020 20:00:00 17,6 17,5 8 5 -
26.05.2020 19:00:00 23,2 17,5 8 4 0,1
26.05.2020 18:00:00 24,9 20,6 0 0 0,0
26.05.2020 17:00:00 23,2 22,2 0 0 0,0
26.05.2020 16:00:00 17,5 17,4 4 2 3,3
26.05.2020 15:00:00 15,1 15,0 9 5 1,3
26.05.2020 14:00:00 15,1 15,0 23 12 -
26.05.2020 13:00:00 18,5 18,3 6 4 0,8
26.05.2020 12:00:00 21,9 19,3 5 3 0,0
26.05.2020 11:00:00 23,6 22,0 6 3 0,1
26.05.2020 10:00:00 19,0 18,8 1 1 0,0
26.05.2020 09:00:00 15,0 14,8 0 0 0,0
26.05.2020 08:00:00 13,4 13,3 0 0 -
26.05.2020 07:00:00 13,4 13,3 0 0 0,0
26.05.2020 06:00:00 14,0 13,9 1 1 0,1
26.05.2020 05:00:00 15,5 15,3 2 1 0,1
26.05.2020 04:00:00 15,6 15,4 0 0 0,0
26.05.2020 03:00:00 15,7 15,5 5 3 0,1
26.05.2020 02:00:00 15,6 15,4 7 4 -
26.05.2020 01:00:00 15,4 15,3 5 3 2,5
26.05.2020 00:00:00 16,3 16,1 6 3 0,5
25.05.2020 23:00:00 18,4 18,2 0 0 0,0
25.05.2020 22:00:00 18,9 18,8 0 0 0,0
25.05.2020 21:00:00 19,6 19,4 0 0 0,0
25.05.2020 20:00:00 23,3 19,1 0 0 -
25.05.2020 19:00:00 23,0 18,3 4 2 0,0
25.05.2020 18:00:00 23,1 18,0 9 5 0,0
25.05.2020 17:00:00 27,3 20,4 8 5 0,0
25.05.2020 16:00:00 26,5 19,8 11 6 0,1
25.05.2020 15:00:00 26,3 20,2 11 6 0,1
25.05.2020 14:00:00 24,8 21,1 7 4 -
25.05.2020 13:00:00 23,2 18,1 11 6 0,0
25.05.2020 12:00:00 24,3 20,0 8 5 0,0
25.05.2020 11:00:00 23,1 18,0 1 1 0,0
25.05.2020 10:00:00 22,5 18,7 1 0 0,0
25.05.2020 09:00:00 17,9 17,8 0 0 0,0
25.05.2020 08:00:00 16,0 15,9 0 0 -
25.05.2020 07:00:00 15,4 15,3 0 0 0,0
25.05.2020 06:00:00 15,8 15,6 0 0 0,0
25.05.2020 05:00:00 16,0 15,9 0 0 0,0
25.05.2020 04:00:00 16,2 16,0 0 0 0,0
25.05.2020 03:00:00 16,1 16,0 0 0 0,0
25.05.2020 02:00:00 16,2 16,0 0 0 -
25.05.2020 01:00:00 16,4 16,2 0 0 0,0
25.05.2020 00:00:00 17,4 17,2 0 0 0,0
24.05.2020 23:00:00 18,8 18,6 0 0 0,0
24.05.2020 22:00:00 19,6 19,4 0 0 0,0
24.05.2020 21:00:00 23,4 19,6 2 1 0,0
24.05.2020 20:00:00 26,4 20,0 7 4 -
24.05.2020 19:00:00 28,2 18,3 8 5 0,0
24.05.2020 18:00:00 28,7 18,8 12 6 0,0
24.05.2020 17:00:00 29,3 19,1 11 6 0,0
24.05.2020 16:00:00 27,7 18,7 14 8 0,0
24.05.2020 15:00:00 27,0 17,2 11 6 0,0
24.05.2020 14:00:00 26,8 16,7 9 5 -
24.05.2020 13:00:00 26,7 16,6 11 6 0,0
24.05.2020 12:00:00 26,1 17,2 6 4 0,0
24.05.2020 11:00:00 24,8 16,2 0 0 0,0
24.05.2020 10:00:00 20,7 18,1 0 0 0,0
24.05.2020 09:00:00 14,9 14,7 0 0 0,0
24.05.2020 08:00:00 12,9 12,7 0 0 -
24.05.2020 07:00:00 12,5 12,3 0 0 0,0
24.05.2020 06:00:00 12,5 12,3 0 0 0,0
24.05.2020 05:00:00 13,0 12,8 0 0 0,0
24.05.2020 04:00:00 13,4 13,3 0 0 0,0
24.05.2020 03:00:00 14,5 14,3 0 0 0,0
24.05.2020 02:00:00 16,9 16,7 1 1 -
24.05.2020 01:00:00 16,6 16,5 1 0 0,0
24.05.2020 00:00:00 19,6 19,4 1 1 0,0
23.05.2020 23:00:00 18,3 18,2 0 0 0,0
23.05.2020 22:00:00 19,9 18,0 0 0 0,0
23.05.2020 21:00:00 22,7 17,1 0 0 0,0
23.05.2020 20:00:00 29,3 18,1 7 4 -
23.05.2020 19:00:00 31,5 17,1 8 4 0,0
23.05.2020 18:00:00 30,9 16,9 8 4 0,0
23.05.2020 17:00:00 29,8 16,6 8 5 0,0
23.05.2020 16:00:00 31,0 18,4 15 8 0,0
23.05.2020 15:00:00 30,3 18,4 10 5 0,0
23.05.2020 14:00:00 28,4 18,2 10 6 -
23.05.2020 13:00:00 28,5 20,3 9 5 0,0
23.05.2020 12:00:00 28,3 20,1 0 0 0,0
23.05.2020 11:00:00 25,8 19,7 0 0 0,0
23.05.2020 10:00:00 19,6 18,5 0 0 0,0
23.05.2020 09:00:00 15,6 15,4 0 0 0,0
23.05.2020 08:00:00 12,5 12,3 0 0 -
23.05.2020 07:00:00 11,9 11,8 0 0 0,0
23.05.2020 06:00:00 12,1 12,0 0 0 0,0
23.05.2020 05:00:00 12,4 12,2 0 0 0,0
23.05.2020 04:00:00 13,1 13,0 0 0 0,0
23.05.2020 03:00:00 13,1 13,0 0 0 0,0
23.05.2020 02:00:00 14,0 13,9 0 0 -
23.05.2020 01:00:00 15,1 15,0 0 0 0,0
23.05.2020 00:00:00 16,3 16,1 0 0 0,0
22.05.2020 23:00:00 17,6 17,5 0 0 0,0

tt = temperature
td = dewpoint
fx = gusts
rr = precipitation

Next stations